sensor_id;sensor_type;location;lat;lon;timestamp;pressure;altitude;pressure_sealevel;temperature;humidity
6425;BME280;12193;42.642;23.384;2024-01-25T00:01:04;59546.94;;;-140.48;100.00
6425;BME280;12193;42.642;23.384;2024-01-25T00:03:33;59546.94;;;-140.48;100.00
6425;BME280;12193;42.642;23.384;2024-01-25T00:06:04;59546.94;;;-140.48;100.00
6425;BME280;12193;42.642;23.384;2024-01-25T00:08:36;59546.94;;;-140.48;100.00
6425;BME280;12193;42.642;23.384;2024-01-25T00:11:06;59546.94;;;-140.48;100.00
6425;BME280;12193;42.642;23.384;2024-01-25T00:13:35;59546.94;;;-140.48;100.00
6425;BME280;12193;42.642;23.384;2024-01-25T00:16:05;59546.94;;;-140.48;100.00
6425;BME280;12193;42.642;23.384;2024-01-25T00:18:35;59546.94;;;-140.48;100.00
6425;BME280;12193;42.642;23.384;2024-01-25T00:21:04;59546.94;;;-140.48;100.00
6425;BME280;12193;42.642;23.384;2024-01-25T00:23:36;59546.94;;;-140.48;100.00
6425;BME280;12193;42.642;23.384;2024-01-25T00:26:05;59546.94;;;-140.48;100.00
6425;BME280;12193;42.642;23.384;2024-01-25T00:28:34;59546.94;;;-140.48;100.00
6425;BME280;12193;42.642;23.384;2024-01-25T00:31:04;59546.94;;;-140.48;100.00
6425;BME280;12193;42.642;23.384;2024-01-25T00:33:33;59546.94;;;-140.48;100.00
6425;BME280;12193;42.642;23.384;2024-01-25T00:36:03;59546.94;;;-140.48;100.00
6425;BME280;12193;42.642;23.384;2024-01-25T00:38:36;59546.94;;;-140.48;100.00
6425;BME280;12193;42.642;23.384;2024-01-25T00:41:09;59546.94;;;-140.48;100.00
6425;BME280;12193;42.642;23.384;2024-01-25T00:43:39;59546.94;;;-140.48;100.00
6425;BME280;12193;42.642;23.384;2024-01-25T00:46:09;59546.94;;;-140.48;100.00
6425;BME280;12193;42.642;23.384;2024-01-25T00:48:39;59546.94;;;-140.48;100.00
6425;BME280;12193;42.642;23.384;2024-01-25T00:51:14;59546.94;;;-140.48;100.00
6425;BME280;12193;42.642;23.384;2024-01-25T00:53:47;59546.94;;;-140.48;100.00
6425;BME280;12193;42.642;23.384;2024-01-25T00:56:17;59546.94;;;-140.48;100.00
6425;BME280;12193;42.642;23.384;2024-01-25T00:58:47;59546.94;;;-140.48;100.00
6425;BME280;12193;42.642;23.384;2024-01-25T01:01:18;59546.94;;;-140.48;100.00
6425;BME280;12193;42.642;23.384;2024-01-25T01:03:49;59546.94;;;-140.48;100.00
6425;BME280;12193;42.642;23.384;2024-01-25T03:58:32;94697.41;;;7.60;100.00
6425;BME280;12193;42.642;23.384;2024-01-25T04:01:01;94681.06;;;7.45;100.00
6425;BME280;12193;42.642;23.384;2024-01-25T04:03:30;94664.50;;;7.40;100.00
6425;BME280;12193;42.642;23.384;2024-01-25T04:06:00;94689.38;;;7.41;100.00
6425;BME280;12193;42.642;23.384;2024-01-25T04:08:29;94671.78;;;7.36;99.90
6425;BME280;12193;42.642;23.384;2024-01-25T04:10:58;94672.31;;;7.32;99.77
6425;BME280;12193;42.642;23.384;2024-01-25T04:13:28;94669.31;;;7.43;98.97
6425;BME280;12193;42.642;23.384;2024-01-25T04:15:59;94664.59;;;7.46;98.10
6425;BME280;12193;42.642;23.384;2024-01-25T04:18:29;94668.44;;;7.50;97.14
6425;BME280;12193;42.642;23.384;2024-01-25T04:21:00;94676.16;;;7.65;96.04
6425;BME280;12193;42.642;23.384;2024-01-25T04:23:29;94673.34;;;7.60;95.47
6425;BME280;12193;42.642;23.384;2024-01-25T04:25:58;94669.56;;;7.62;95.95
6425;BME280;12193;42.642;23.384;2024-01-25T04:28:27;94666.34;;;7.60;95.60
6425;BME280;12193;42.642;23.384;2024-01-25T04:30:59;94672.09;;;7.70;95.37
6425;BME280;12193;42.642;23.384;2024-01-25T04:33:29;94682.44;;;7.70;95.67
6425;BME280;12193;42.642;23.384;2024-01-25T04:35:58;94676.00;;;7.81;94.26
6425;BME280;12193;42.642;23.384;2024-01-25T04:38:27;94670.53;;;7.90;93.10
6425;BME280;12193;42.642;23.384;2024-01-25T04:40:56;94668.47;;;7.86;92.78
6425;BME280;12193;42.642;23.384;2024-01-25T04:43:25;94679.50;;;7.73;93.33
6425;BME280;12193;42.642;23.384;2024-01-25T04:45:54;94684.19;;;7.70;92.73
6425;BME280;12193;42.642;23.384;2024-01-25T04:48:27;94699.38;;;7.87;91.37
6425;BME280;12193;42.642;23.384;2024-01-25T04:50:56;94693.47;;;7.64;92.69
6425;BME280;12193;42.642;23.384;2024-01-25T04:53:26;94698.63;;;7.35;93.10
6425;BME280;12193;42.642;23.384;2024-01-25T04:55:55;94700.13;;;7.30;93.49
6425;BME280;12193;42.642;23.384;2024-01-25T04:58:25;94701.28;;;7.27;93.80
6425;BME280;12193;42.642;23.384;2024-01-25T05:00:55;94697.88;;;7.13;93.68
6425;BME280;12193;42.642;23.384;2024-01-25T05:03:26;94711.66;;;7.05;94.02
6425;BME280;12193;42.642;23.384;2024-01-25T05:05:57;94707.59;;;6.88;93.97
6425;BME280;12193;42.642;23.384;2024-01-25T05:08:26;94724.00;;;6.50;96.29
6425;BME280;12193;42.642;23.384;2024-01-25T05:10:55;94732.44;;;6.44;97.82
6425;BME280;12193;42.642;23.384;2024-01-25T05:13:25;94727.06;;;6.23;98.26
6425;BME280;12193;42.642;23.384;2024-01-25T05:15:54;94733.50;;;6.27;98.30
6425;BME280;12193;42.642;23.384;2024-01-25T05:18:26;94735.41;;;6.33;97.92
6425;BME280;12193;42.642;23.384;2024-01-25T05:20:55;94745.53;;;6.35;96.60
6425;BME280;12193;42.642;23.384;2024-01-25T05:23:24;94761.19;;;6.41;95.82
6425;BME280;12193;42.642;23.384;2024-01-25T05:25:53;94770.34;;;6.44;94.87
6425;BME280;12193;42.642;23.384;2024-01-25T05:28:22;94773.03;;;6.58;93.16
6425;BME280;12193;42.642;23.384;2024-01-25T05:30:52;94763.16;;;6.62;92.57
6425;BME280;12193;42.642;23.384;2024-01-25T05:33:21;94756.38;;;6.83;90.37
6425;BME280;12193;42.642;23.384;2024-01-25T05:35:53;94763.22;;;6.99;89.31
6425;BME280;12193;42.642;23.384;2024-01-25T05:38:22;94770.13;;;7.06;87.88
6425;BME280;12193;42.642;23.384;2024-01-25T05:40:52;94768.16;;;7.08;87.30
6425;BME280;12193;42.642;23.384;2024-01-25T05:43:21;94772.22;;;7.11;86.79
6425;BME280;12193;42.642;23.384;2024-01-25T05:45:50;94779.31;;;7.09;86.44
6425;BME280;12193;42.642;23.384;2024-01-25T05:48:19;94784.41;;;7.17;86.34
6425;BME280;12193;42.642;23.384;2024-01-25T05:50:49;94789.34;;;7.26;85.37
6425;BME280;12193;42.642;23.384;2024-01-25T05:53:21;94785.34;;;7.23;85.67
6425;BME280;12193;42.642;23.384;2024-01-25T05:55:50;94802.16;;;7.19;85.03
6425;BME280;12193;42.642;23.384;2024-01-25T05:58:19;94797.88;;;7.49;84.26
6425;BME280;12193;42.642;23.384;2024-01-25T06:00:48;94782.31;;;7.34;84.26
6425;BME280;12193;42.642;23.384;2024-01-25T06:03:18;94777.78;;;7.36;84.48
6425;BME280;12193;42.642;23.384;2024-01-25T06:05:47;94785.03;;;7.41;84.61
6425;BME280;12193;42.642;23.384;2024-01-25T06:08:16;94787.69;;;7.33;84.85
6425;BME280;12193;42.642;23.384;2024-01-25T06:10:48;94796.41;;;7.32;85.39
6425;BME280;12193;42.642;23.384;2024-01-25T06:13:17;94793.06;;;7.46;85.18
6425;BME280;12193;42.642;23.384;2024-01-25T06:15:47;94805.09;;;7.39;85.16
6425;BME280;12193;42.642;23.384;2024-01-25T06:18:16;94806.47;;;7.27;86.24
6425;BME280;12193;42.642;23.384;2024-01-25T06:20:45;94807.63;;;7.24;86.04
6425;BME280;12193;42.642;23.384;2024-01-25T06:23:14;94806.38;;;7.20;86.15
6425;BME280;12193;42.642;23.384;2024-01-25T06:25:43;94806.69;;;7.18;85.91
6425;BME280;12193;42.642;23.384;2024-01-25T06:28:15;94800.84;;;7.23;85.87
6425;BME280;12193;42.642;23.384;2024-01-25T06:30:45;94797.06;;;7.12;87.01
6425;BME280;12193;42.642;23.384;2024-01-25T06:33:14;94796.25;;;7.11;86.97
6425;BME280;12193;42.642;23.384;2024-01-25T06:35:44;94804.41;;;7.22;86.75
6425;BME280;12193;42.642;23.384;2024-01-25T06:38:13;94794.06;;;7.22;86.77
6425;BME280;12193;42.642;23.384;2024-01-25T06:40:42;94781.28;;;7.07;87.08
6425;BME280;12193;42.642;23.384;2024-01-25T06:43:11;94781.44;;;7.27;86.34
6425;BME280;12193;42.642;23.384;2024-01-25T06:45:43;94785.34;;;7.23;86.40
6425;BME280;12193;42.642;23.384;2024-01-25T06:48:12;94781.66;;;7.18;86.86
6425;BME280;12193;42.642;23.384;2024-01-25T06:50:41;94777.47;;;7.17;86.99
6425;BME280;12193;42.642;23.384;2024-01-25T06:53:11;94775.53;;;7.19;87.02
6425;BME280;12193;42.642;23.384;2024-01-25T06:55:40;94758.47;;;7.10;87.63
6425;BME280;12193;42.642;23.384;2024-01-25T06:58:09;94768.00;;;7.10;87.16
6425;BME280;12193;42.642;23.384;2024-01-25T07:00:39;94757.03;;;7.08;87.20
6425;BME280;12193;42.642;23.384;2024-01-25T07:03:11;94767.59;;;7.20;87.03
6425;BME280;12193;42.642;23.384;2024-01-25T07:05:41;94755.09;;;7.24;86.37
6425;BME280;12193;42.642;23.384;2024-01-25T07:08:10;94765.34;;;7.18;86.56
6425;BME280;12193;42.642;23.384;2024-01-25T07:10:41;94754.03;;;7.18;86.51
6425;BME280;12193;42.642;23.384;2024-01-25T07:13:10;94772.31;;;7.17;86.20
6425;BME280;12193;42.642;23.384;2024-01-25T07:15:39;94770.75;;;7.30;85.81
6425;BME280;12193;42.642;23.384;2024-01-25T07:18:11;94766.81;;;7.34;85.53
6425;BME280;12193;42.642;23.384;2024-01-25T07:20:40;94773.88;;;7.40;84.77
6425;BME280;12193;42.642;23.384;2024-01-25T07:23:10;94777.06;;;7.28;85.24
6425;BME280;12193;42.642;23.384;2024-01-25T07:25:41;94777.16;;;7.34;84.60
6425;BME280;12193;42.642;23.384;2024-01-25T07:28:10;94779.88;;;7.41;84.28
6425;BME280;12193;42.642;23.384;2024-01-25T07:30:40;94791.94;;;7.48;83.08
6425;BME280;12193;42.642;23.384;2024-01-25T07:33:12;94803.94;;;7.41;83.08
6425;BME280;12193;42.642;23.384;2024-01-25T07:35:42;94802.72;;;7.52;82.80
6425;BME280;12193;42.642;23.384;2024-01-25T07:38:11;94805.25;;;7.37;83.13
6425;BME280;12193;42.642;23.384;2024-01-25T07:40:41;94806.66;;;7.25;82.83
6425;BME280;12193;42.642;23.384;2024-01-25T07:43:10;94800.81;;;7.31;82.98
6425;BME280;12193;42.642;23.384;2024-01-25T07:45:39;94812.13;;;7.30;82.95
6425;BME280;12193;42.642;23.384;2024-01-25T07:48:09;94819.94;;;7.59;82.18
6425;BME280;12193;42.642;23.384;2024-01-25T07:50:41;94832.13;;;7.51;81.99
6425;BME280;12193;42.642;23.384;2024-01-25T07:53:10;94834.28;;;7.47;82.07
6425;BME280;12193;42.642;23.384;2024-01-25T07:55:42;94834.44;;;7.46;81.88
6425;BME280;12193;42.642;23.384;2024-01-25T07:58:11;94833.94;;;7.50;81.67
6425;BME280;12193;42.642;23.384;2024-01-25T08:00:40;94836.38;;;7.66;80.77
6425;BME280;12193;42.642;23.384;2024-01-25T08:03:11;94841.69;;;7.87;79.33
6425;BME280;12193;42.642;23.384;2024-01-25T08:05:43;94832.78;;;8.04;78.85
6425;BME280;12193;42.642;23.384;2024-01-25T08:08:12;94827.25;;;8.07;78.78
6425;BME280;12193;42.642;23.384;2024-01-25T08:10:41;94840.88;;;7.87;77.83
6425;BME280;12193;42.642;23.384;2024-01-25T08:13:11;94834.91;;;7.86;78.74
6425;BME280;12193;42.642;23.384;2024-01-25T08:15:41;94832.00;;;7.67;78.55
6425;BME280;12193;42.642;23.384;2024-01-25T08:18:10;94828.47;;;7.82;78.02
6425;BME280;12193;42.642;23.384;2024-01-25T08:20:39;94831.31;;;7.73;78.40
6425;BME280;12193;42.642;23.384;2024-01-25T08:23:11;94831.31;;;7.73;77.87
6425;BME280;12193;42.642;23.384;2024-01-25T08:25:40;94836.44;;;7.58;77.89
6425;BME280;12193;42.642;23.384;2024-01-25T08:28:10;94838.41;;;7.93;77.29
6425;BME280;12193;42.642;23.384;2024-01-25T08:30:39;94837.53;;;8.01;78.13
6425;BME280;12193;42.642;23.384;2024-01-25T08:33:08;94841.53;;;8.03;76.45
6425;BME280;12193;42.642;23.384;2024-01-25T08:35:37;94834.28;;;7.84;76.83
6425;BME280;12193;42.642;23.384;2024-01-25T08:38:06;94839.56;;;8.05;76.03
6425;BME280;12193;42.642;23.384;2024-01-25T08:40:38;94841.59;;;8.18;74.66
6425;BME280;12193;42.642;23.384;2024-01-25T08:43:07;94839.44;;;8.21;74.78
6425;BME280;12193;42.642;23.384;2024-01-25T08:45:36;94829.88;;;8.36;72.39
6425;BME280;12193;42.642;23.384;2024-01-25T08:48:06;94834.31;;;8.13;72.32
6425;BME280;12193;42.642;23.384;2024-01-25T08:50:36;94847.06;;;8.15;72.64
6425;BME280;12193;42.642;23.384;2024-01-25T08:53:05;94841.28;;;8.13;72.36
6425;BME280;12193;42.642;23.384;2024-01-25T08:55:35;94847.69;;;8.02;73.88
6425;BME280;12193;42.642;23.384;2024-01-25T08:58:06;94839.84;;;8.10;73.16
6425;BME280;12193;42.642;23.384;2024-01-25T09:00:36;94859.50;;;8.19;72.62
6425;BME280;12193;42.642;23.384;2024-01-25T09:03:05;94839.44;;;8.35;71.67
6425;BME280;12193;42.642;23.384;2024-01-25T09:05:34;94841.41;;;8.48;71.07
6425;BME280;12193;42.642;23.384;2024-01-25T09:08:07;94835.88;;;8.51;70.52
6425;BME280;12193;42.642;23.384;2024-01-25T09:10:36;94843.16;;;8.62;69.99
6425;BME280;12193;42.642;23.384;2024-01-25T09:13:08;94845.03;;;8.82;69.96
6425;BME280;12193;42.642;23.384;2024-01-25T09:15:37;94836.34;;;8.90;69.58
6425;BME280;12193;42.642;23.384;2024-01-25T09:18:07;94837.19;;;9.32;67.86
6425;BME280;12193;42.642;23.384;2024-01-25T09:20:36;94840.91;;;9.44;66.94
6425;BME280;12193;42.642;23.384;2024-01-25T09:23:05;94839.59;;;9.75;66.56
6425;BME280;12193;42.642;23.384;2024-01-25T09:25:34;94844.53;;;9.08;67.99
6425;BME280;12193;42.642;23.384;2024-01-25T09:28:04;94842.91;;;8.57;70.03
6425;BME280;12193;42.642;23.384;2024-01-25T09:30:35;94836.56;;;8.45;71.87
6425;BME280;12193;42.642;23.384;2024-01-25T09:33:05;94827.56;;;8.55;71.65
6425;BME280;12193;42.642;23.384;2024-01-25T09:35:34;94821.75;;;8.53;71.61
6425;BME280;12193;42.642;23.384;2024-01-25T09:38:03;94822.19;;;8.57;71.51
6425;BME280;12193;42.642;23.384;2024-01-25T09:40:33;94833.34;;;9.70;65.70
6425;BME280;12193;42.642;23.384;2024-01-25T09:43:03;94832.34;;;9.08;67.04
6425;BME280;12193;42.642;23.384;2024-01-25T09:45:35;94823.03;;;8.93;68.56
6425;BME280;12193;42.642;23.384;2024-01-25T09:48:05;94820.66;;;8.98;69.26
6425;BME280;12193;42.642;23.384;2024-01-25T09:50:34;94819.34;;;9.23;67.96
6425;BME280;12193;42.642;23.384;2024-01-25T09:53:05;94818.34;;;9.24;68.06
6425;BME280;12193;42.642;23.384;2024-01-25T09:55:38;94807.59;;;9.06;68.59
6425;BME280;12193;42.642;23.384;2024-01-25T09:58:08;94806.97;;;9.04;68.65
6425;BME280;12193;42.642;23.384;2024-01-25T10:00:41;59546.94;;;-140.48;100.00
6425;BME280;12193;42.642;23.384;2024-01-25T10:03:10;59546.94;;;-140.48;100.00
6425;BME280;12193;42.642;23.384;2024-01-25T10:05:39;59546.94;;;-140.48;100.00
6425;BME280;12193;42.642;23.384;2024-01-25T10:08:12;59546.94;;;-140.48;100.00
6425;BME280;12193;42.642;23.384;2024-01-25T10:10:42;59546.94;;;-140.48;100.00
6425;BME280;12193;42.642;23.384;2024-01-25T10:13:13;59546.94;;;-140.48;100.00
6425;BME280;12193;42.642;23.384;2024-01-25T10:15:45;59546.94;;;-140.48;100.00
6425;BME280;12193;42.642;23.384;2024-01-25T10:18:15;59546.94;;;-140.48;100.00
6425;BME280;12193;42.642;23.384;2024-01-25T10:20:44;59546.94;;;-140.48;100.00
6425;BME280;12193;42.642;23.384;2024-01-25T10:23:13;59546.94;;;-140.48;100.00
6425;BME280;12193;42.642;23.384;2024-01-25T10:25:42;59546.94;;;-140.48;100.00
6425;BME280;12193;42.642;23.384;2024-01-25T10:28:12;59546.94;;;-140.48;100.00
6425;BME280;12193;42.642;23.384;2024-01-25T10:30:41;59546.94;;;-140.48;100.00
6425;BME280;12193;42.642;23.384;2024-01-25T10:33:13;59546.94;;;-140.48;100.00
6425;BME280;12193;42.642;23.384;2024-01-25T10:35:45;59546.94;;;-140.48;100.00
6425;BME280;12193;42.642;23.384;2024-01-25T10:38:17;59546.94;;;-140.48;100.00
6425;BME280;12193;42.642;23.384;2024-01-25T10:40:46;59546.94;;;-140.48;100.00
6425;BME280;12193;42.642;23.384;2024-01-25T10:43:16;59546.94;;;-140.48;100.00
6425;BME280;12193;42.642;23.384;2024-01-25T10:45:45;59546.94;;;-140.48;100.00
6425;BME280;12193;42.642;23.384;2024-01-25T10:48:22;59546.94;;;-140.48;100.00
6425;BME280;12193;42.642;23.384;2024-01-25T10:50:53;59546.94;;;-140.48;100.00
6425;BME280;12193;42.642;23.384;2024-01-25T10:53:23;59546.94;;;-140.48;100.00
6425;BME280;12193;42.642;23.384;2024-01-25T10:55:53;59546.94;;;-140.48;100.00
6425;BME280;12193;42.642;23.384;2024-01-25T10:58:22;59546.94;;;-140.48;100.00
6425;BME280;12193;42.642;23.384;2024-01-25T11:00:52;59546.94;;;-140.48;100.00
6425;BME280;12193;42.642;23.384;2024-01-25T11:03:26;59546.94;;;-140.48;100.00
6425;BME280;12193;42.642;23.384;2024-01-25T11:06:06;59546.94;;;-140.48;100.00
6425;BME280;12193;42.642;23.384;2024-01-25T11:08:36;59546.94;;;-140.48;100.00
6425;BME280;12193;42.642;23.384;2024-01-25T11:11:06;59546.94;;;-140.48;100.00
6425;BME280;12193;42.642;23.384;2024-01-25T11:13:39;59546.94;;;-140.48;100.00
6425;BME280;12193;42.642;23.384;2024-01-25T11:16:13;59546.94;;;-140.48;100.00
6425;BME280;12193;42.642;23.384;2024-01-25T11:18:54;59546.94;;;-140.48;100.00
6425;BME280;12193;42.642;23.384;2024-01-25T11:21:29;59546.94;;;-140.48;100.00
6425;BME280;12193;42.642;23.384;2024-01-25T11:24:01;59546.94;;;-140.48;100.00
6425;BME280;12193;42.642;23.384;2024-01-25T11:26:32;59546.94;;;-140.48;100.00
6425;BME280;12193;42.642;23.384;2024-01-25T11:29:02;59546.94;;;-140.48;100.00
6425;BME280;12193;42.642;23.384;2024-01-25T11:31:31;59546.94;;;-140.48;100.00
6425;BME280;12193;42.642;23.384;2024-01-25T11:34:03;59546.94;;;-140.48;100.00
6425;BME280;12193;42.642;23.384;2024-01-25T11:36:32;59546.94;;;-140.48;100.00
6425;BME280;12193;42.642;23.384;2024-01-25T11:39:02;59546.94;;;-140.48;100.00
6425;BME280;12193;42.642;23.384;2024-01-25T11:41:32;59546.94;;;-140.48;100.00
6425;BME280;12193;42.642;23.384;2024-01-25T11:44:02;59546.94;;;-140.48;100.00
6425;BME280;12193;42.642;23.384;2024-01-25T11:46:31;59546.94;;;-140.48;100.00
6425;BME280;12193;42.642;23.384;2024-01-25T11:49:03;59546.94;;;-140.48;100.00
6425;BME280;12193;42.642;23.384;2024-01-25T11:51:33;59546.94;;;-140.48;100.00
6425;BME280;12193;42.642;23.384;2024-01-25T11:54:02;59546.94;;;-140.48;100.00
6425;BME280;12193;42.642;23.384;2024-01-25T11:56:36;59546.94;;;-140.48;100.00
6425;BME280;12193;42.642;23.384;2024-01-25T11:59:07;59546.94;;;-140.48;100.00
6425;BME280;12193;42.642;23.384;2024-01-25T12:01:37;59546.94;;;-140.48;100.00
6425;BME280;12193;42.642;23.384;2024-01-25T12:04:09;59546.94;;;-140.48;100.00
6425;BME280;12193;42.642;23.384;2024-01-25T12:06:38;59546.94;;;-140.48;100.00
6425;BME280;12193;42.642;23.384;2024-01-25T12:09:08;59546.94;;;-140.48;100.00
6425;BME280;12193;42.642;23.384;2024-01-25T12:11:39;59546.94;;;-140.48;100.00
6425;BME280;12193;42.642;23.384;2024-01-25T12:14:09;59546.94;;;-140.48;100.00
6425;BME280;12193;42.642;23.384;2024-01-25T12:16:39;59546.94;;;-140.48;100.00
6425;BME280;12193;42.642;23.384;2024-01-25T12:19:11;59546.94;;;-140.48;100.00
6425;BME280;12193;42.642;23.384;2024-01-25T12:21:43;59546.94;;;-140.48;100.00
6425;BME280;12193;42.642;23.384;2024-01-25T12:24:13;59546.94;;;-140.48;100.00
6425;BME280;12193;42.642;23.384;2024-01-25T12:26:42;59546.94;;;-140.48;100.00
6425;BME280;12193;42.642;23.384;2024-01-25T12:29:11;59546.94;;;-140.48;100.00
6425;BME280;12193;42.642;23.384;2024-01-25T12:31:41;59546.94;;;-140.48;100.00
6425;BME280;12193;42.642;23.384;2024-01-25T12:34:15;59546.94;;;-140.48;100.00
6425;BME280;12193;42.642;23.384;2024-01-25T12:36:45;59546.94;;;-140.48;100.00
6425;BME280;12193;42.642;23.384;2024-01-25T12:39:14;59546.94;;;-140.48;100.00
6425;BME280;12193;42.642;23.384;2024-01-25T12:41:43;59546.94;;;-140.48;100.00
6425;BME280;12193;42.642;23.384;2024-01-25T12:44:12;59546.94;;;-140.48;100.00
6425;BME280;12193;42.642;23.384;2024-01-25T12:46:41;59546.94;;;-140.48;100.00
6425;BME280;12193;42.642;23.384;2024-01-25T12:49:10;59546.94;;;-140.48;100.00
6425;BME280;12193;42.642;23.384;2024-01-25T12:51:42;59546.94;;;-140.48;100.00
6425;BME280;12193;42.642;23.384;2024-01-25T12:54:12;59546.94;;;-140.48;100.00
6425;BME280;12193;42.642;23.384;2024-01-25T12:56:41;59546.94;;;-140.48;100.00
6425;BME280;12193;42.642;23.384;2024-01-25T12:59:10;59546.94;;;-140.48;100.00
6425;BME280;12193;42.642;23.384;2024-01-25T13:01:39;59546.94;;;-140.48;100.00
6425;BME280;12193;42.642;23.384;2024-01-25T13:04:09;59546.94;;;-140.48;100.00
6425;BME280;12193;42.642;23.384;2024-01-25T13:06:38;59546.94;;;-140.48;100.00
6425;BME280;12193;42.642;23.384;2024-01-25T13:09:11;59546.94;;;-140.48;100.00
6425;BME280;12193;42.642;23.384;2024-01-25T13:11:41;59546.94;;;-140.48;100.00
6425;BME280;12193;42.642;23.384;2024-01-25T13:14:10;59546.94;;;-140.48;100.00
6425;BME280;12193;42.642;23.384;2024-01-25T13:16:39;59546.94;;;-140.48;100.00
6425;BME280;12193;42.642;23.384;2024-01-25T13:19:08;59546.94;;;-140.48;100.00
6425;BME280;12193;42.642;23.384;2024-01-25T13:21:38;59546.94;;;-140.48;100.00
6425;BME280;12193;42.642;23.384;2024-01-25T13:24:07;59546.94;;;-140.48;100.00
6425;BME280;12193;42.642;23.384;2024-01-25T13:26:39;59546.94;;;-140.48;100.00
6425;BME280;12193;42.642;23.384;2024-01-25T13:29:08;59546.94;;;-140.48;100.00
6425;BME280;12193;42.642;23.384;2024-01-25T13:31:39;59546.94;;;-140.48;100.00
6425;BME280;12193;42.642;23.384;2024-01-25T13:34:08;59546.94;;;-140.48;100.00
6425;BME280;12193;42.642;23.384;2024-01-25T13:36:37;59546.94;;;-140.48;100.00
6425;BME280;12193;42.642;23.384;2024-01-25T13:39:06;59546.94;;;-140.48;100.00
6425;BME280;12193;42.642;23.384;2024-01-25T13:41:38;59546.94;;;-140.48;100.00
6425;BME280;12193;42.642;23.384;2024-01-25T13:44:08;59546.94;;;-140.48;100.00
6425;BME280;12193;42.642;23.384;2024-01-25T13:46:37;59546.94;;;-140.48;100.00
6425;BME280;12193;42.642;23.384;2024-01-25T13:49:06;59546.94;;;-140.48;100.00
6425;BME280;12193;42.642;23.384;2024-01-25T13:51:35;59546.94;;;-140.48;100.00
6425;BME280;12193;42.642;23.384;2024-01-25T13:54:04;59546.94;;;-140.48;100.00
6425;BME280;12193;42.642;23.384;2024-01-25T13:56:34;59546.94;;;-140.48;100.00
6425;BME280;12193;42.642;23.384;2024-01-25T13:59:06;59546.94;;;-140.48;100.00
6425;BME280;12193;42.642;23.384;2024-01-25T14:01:36;59546.94;;;-140.48;100.00
6425;BME280;12193;42.642;23.384;2024-01-25T14:04:05;59546.94;;;-140.48;100.00
6425;BME280;12193;42.642;23.384;2024-01-25T14:06:35;59546.94;;;-140.48;100.00
6425;BME280;12193;42.642;23.384;2024-01-25T14:09:04;59546.94;;;-140.48;100.00
6425;BME280;12193;42.642;23.384;2024-01-25T14:11:33;59546.94;;;-140.48;100.00
6425;BME280;12193;42.642;23.384;2024-01-25T14:14:03;59546.94;;;-140.48;100.00
6425;BME280;12193;42.642;23.384;2024-01-25T14:16:34;59546.94;;;-140.48;100.00
6425;BME280;12193;42.642;23.384;2024-01-25T14:19:04;59546.94;;;-140.48;100.00
6425;BME280;12193;42.642;23.384;2024-01-25T14:21:33;59546.94;;;-140.48;100.00
6425;BME280;12193;42.642;23.384;2024-01-25T14:24:02;59546.94;;;-140.48;100.00
6425;BME280;12193;42.642;23.384;2024-01-25T14:26:32;59546.94;;;-140.48;100.00
6425;BME280;12193;42.642;23.384;2024-01-25T14:29:01;59546.94;;;-140.48;100.00
6425;BME280;12193;42.642;23.384;2024-01-25T14:31:30;59546.94;;;-140.48;100.00
6425;BME280;12193;42.642;23.384;2024-01-25T14:34:02;59546.94;;;-140.48;100.00
6425;BME280;12193;42.642;23.384;2024-01-25T14:36:31;59546.94;;;-140.48;100.00
6425;BME280;12193;42.642;23.384;2024-01-25T14:39:00;59546.94;;;-140.48;100.00
6425;BME280;12193;42.642;23.384;2024-01-25T14:41:29;59546.94;;;-140.48;100.00
6425;BME280;12193;42.642;23.384;2024-01-25T14:43:59;59546.94;;;-140.48;100.00
6425;BME280;12193;42.642;23.384;2024-01-25T14:46:29;59546.94;;;-140.48;100.00
6425;BME280;12193;42.642;23.384;2024-01-25T14:49:01;59546.94;;;-140.48;100.00
6425;BME280;12193;42.642;23.384;2024-01-25T14:51:30;59546.94;;;-140.48;100.00
6425;BME280;12193;42.642;23.384;2024-01-25T14:53:59;59546.94;;;-140.48;100.00
6425;BME280;12193;42.642;23.384;2024-01-25T14:56:28;59546.94;;;-140.48;100.00
6425;BME280;12193;42.642;23.384;2024-01-25T14:58:58;59546.94;;;-140.48;100.00
6425;BME280;12193;42.642;23.384;2024-01-25T15:01:27;59546.94;;;-140.48;100.00
6425;BME280;12193;42.642;23.384;2024-01-25T15:03:57;59546.94;;;-140.48;100.00
6425;BME280;12193;42.642;23.384;2024-01-25T15:06:29;59546.94;;;-140.48;100.00
6425;BME280;12193;42.642;23.384;2024-01-25T15:08:58;59546.94;;;-140.48;100.00
6425;BME280;12193;42.642;23.384;2024-01-25T15:11:28;59546.94;;;-140.48;100.00
6425;BME280;12193;42.642;23.384;2024-01-25T15:13:57;59546.94;;;-140.48;100.00
6425;BME280;12193;42.642;23.384;2024-01-25T15:16:26;59546.94;;;-140.48;100.00
6425;BME280;12193;42.642;23.384;2024-01-25T15:18:56;59546.94;;;-140.48;100.00
6425;BME280;12193;42.642;23.384;2024-01-25T15:21:29;59546.94;;;-140.48;100.00
6425;BME280;12193;42.642;23.384;2024-01-25T15:23:58;59546.94;;;-140.48;100.00
6425;BME280;12193;42.642;23.384;2024-01-25T15:26:27;59546.94;;;-140.48;100.00
6425;BME280;12193;42.642;23.384;2024-01-25T15:28:57;59546.94;;;-140.48;100.00
6425;BME280;12193;42.642;23.384;2024-01-25T15:31:26;59546.94;;;-140.48;100.00
6425;BME280;12193;42.642;23.384;2024-01-25T15:33:55;59546.94;;;-140.48;100.00
6425;BME280;12193;42.642;23.384;2024-01-25T15:36:24;59546.94;;;-140.48;100.00
6425;BME280;12193;42.642;23.384;2024-01-25T15:38:56;59546.94;;;-140.48;100.00
6425;BME280;12193;42.642;23.384;2024-01-25T15:41:26;59546.94;;;-140.48;100.00
6425;BME280;12193;42.642;23.384;2024-01-25T15:43:56;59546.94;;;-140.48;100.00
6425;BME280;12193;42.642;23.384;2024-01-25T15:46:25;59546.94;;;-140.48;100.00
6425;BME280;12193;42.642;23.384;2024-01-25T15:48:55;59546.94;;;-140.48;100.00
6425;BME280;12193;42.642;23.384;2024-01-25T15:51:24;59546.94;;;-140.48;100.00
6425;BME280;12193;42.642;23.384;2024-01-25T15:53:56;59546.94;;;-140.48;100.00